sensor_id;sensor_type;location;lat;lon;timestamp;temperature;humidity
19610;DHT22;9952;47.122;-1.638;2023-02-15T00:03:09;4.20;99.90
19610;DHT22;9952;47.122;-1.638;2023-02-15T00:07:50;4.20;99.90
19610;DHT22;9952;47.122;-1.638;2023-02-15T00:12:31;4.20;99.90
19610;DHT22;9952;47.122;-1.638;2023-02-15T00:17:11;4.20;99.90
19610;DHT22;9952;47.122;-1.638;2023-02-15T00:21:52;4.20;99.90
19610;DHT22;9952;47.122;-1.638;2023-02-15T00:26:33;4.20;99.90
19610;DHT22;9952;47.122;-1.638;2023-02-15T00:31:14;4.10;99.90
19610;DHT22;9952;47.122;-1.638;2023-02-15T00:35:59;4.00;99.90
19610;DHT22;9952;47.122;-1.638;2023-02-15T00:40:40;4.00;99.90
19610;DHT22;9952;47.122;-1.638;2023-02-15T00:45:20;3.90;99.90
19610;DHT22;9952;47.122;-1.638;2023-02-15T00:50:01;3.90;99.90
19610;DHT22;9952;47.122;-1.638;2023-02-15T00:54:43;3.90;99.90
19610;DHT22;9952;47.122;-1.638;2023-02-15T00:59:24;3.90;99.90
19610;DHT22;9952;47.122;-1.638;2023-02-15T01:04:05;3.80;99.90
19610;DHT22;9952;47.122;-1.638;2023-02-15T01:08:46;3.80;99.90
19610;DHT22;9952;47.122;-1.638;2023-02-15T01:13:27;3.80;99.90
19610;DHT22;9952;47.122;-1.638;2023-02-15T01:18:08;3.80;99.90
19610;DHT22;9952;47.122;-1.638;2023-02-15T01:22:48;3.80;99.90
19610;DHT22;9952;47.122;-1.638;2023-02-15T01:27:30;3.80;99.90
19610;DHT22;9952;47.122;-1.638;2023-02-15T01:32:11;3.70;99.90
19610;DHT22;9952;47.122;-1.638;2023-02-15T01:36:52;3.70;99.90
19610;DHT22;9952;47.122;-1.638;2023-02-15T01:41:32;3.70;99.90
19610;DHT22;9952;47.122;-1.638;2023-02-15T01:46:16;3.60;99.90
19610;DHT22;9952;47.122;-1.638;2023-02-15T01:51:00;3.50;99.90
19610;DHT22;9952;47.122;-1.638;2023-02-15T01:55:57;3.50;99.90
19610;DHT22;9952;47.122;-1.638;2023-02-15T02:00:38;3.50;99.90
19610;DHT22;9952;47.122;-1.638;2023-02-15T02:05:19;3.60;99.90
19610;DHT22;9952;47.122;-1.638;2023-02-15T02:10:00;3.70;99.90
19610;DHT22;9952;47.122;-1.638;2023-02-15T02:14:42;3.70;99.90
19610;DHT22;9952;47.122;-1.638;2023-02-15T02:34:31;3.90;99.90
19610;DHT22;9952;47.122;-1.638;2023-02-15T02:45:00;3.80;99.90
19610;DHT22;9952;47.122;-1.638;2023-02-15T02:49:43;3.70;99.90
19610;DHT22;9952;47.122;-1.638;2023-02-15T02:54:24;3.70;99.90
19610;DHT22;9952;47.122;-1.638;2023-02-15T02:59:07;3.60;99.90
19610;DHT22;9952;47.122;-1.638;2023-02-15T03:03:55;3.60;99.90
19610;DHT22;9952;47.122;-1.638;2023-02-15T03:08:42;3.60;99.90
19610;DHT22;9952;47.122;-1.638;2023-02-15T03:13:23;3.60;99.90
19610;DHT22;9952;47.122;-1.638;2023-02-15T03:18:04;3.60;99.90
19610;DHT22;9952;47.122;-1.638;2023-02-15T03:23:01;3.60;99.90
19610;DHT22;9952;47.122;-1.638;2023-02-15T03:27:46;3.60;99.90
19610;DHT22;9952;47.122;-1.638;2023-02-15T03:32:30;3.60;99.90
19610;DHT22;9952;47.122;-1.638;2023-02-15T03:38:13;3.50;99.90
19610;DHT22;9952;47.122;-1.638;2023-02-15T03:42:38;3.60;99.90
19610;DHT22;9952;47.122;-1.638;2023-02-15T03:47:24;3.60;99.90
19610;DHT22;9952;47.122;-1.638;2023-02-15T03:52:07;3.70;99.90
19610;DHT22;9952;47.122;-1.638;2023-02-15T03:56:49;3.80;99.90
19610;DHT22;9952;47.122;-1.638;2023-02-15T04:02:20;3.80;99.90
19610;DHT22;9952;47.122;-1.638;2023-02-15T04:07:04;3.80;99.90
19610;DHT22;9952;47.122;-1.638;2023-02-15T04:11:45;3.70;99.90
19610;DHT22;9952;47.122;-1.638;2023-02-15T04:16:26;3.70;99.90
19610;DHT22;9952;47.122;-1.638;2023-02-15T04:21:10;3.80;99.90
19610;DHT22;9952;47.122;-1.638;2023-02-15T04:26:09;3.70;99.90
19610;DHT22;9952;47.122;-1.638;2023-02-15T04:30:50;3.60;99.90
19610;DHT22;9952;47.122;-1.638;2023-02-15T04:35:30;3.60;99.90
19610;DHT22;9952;47.122;-1.638;2023-02-15T04:40:13;3.60;99.90
19610;DHT22;9952;47.122;-1.638;2023-02-15T04:44:54;3.60;99.90
19610;DHT22;9952;47.122;-1.638;2023-02-15T04:49:35;3.60;99.90
19610;DHT22;9952;47.122;-1.638;2023-02-15T04:54:16;3.50;99.90
19610;DHT22;9952;47.122;-1.638;2023-02-15T04:58:57;3.60;99.90
19610;DHT22;9952;47.122;-1.638;2023-02-15T05:03:37;3.60;99.90
19610;DHT22;9952;47.122;-1.638;2023-02-15T05:08:18;3.50;99.90
19610;DHT22;9952;47.122;-1.638;2023-02-15T05:12:59;3.50;99.90
19610;DHT22;9952;47.122;-1.638;2023-02-15T05:17:40;3.50;99.90
19610;DHT22;9952;47.122;-1.638;2023-02-15T05:22:20;3.50;99.90
19610;DHT22;9952;47.122;-1.638;2023-02-15T05:27:01;3.50;99.90
19610;DHT22;9952;47.122;-1.638;2023-02-15T05:32:00;3.40;99.90
19610;DHT22;9952;47.122;-1.638;2023-02-15T05:36:42;3.40;99.90
19610;DHT22;9952;47.122;-1.638;2023-02-15T05:41:23;3.30;99.90
19610;DHT22;9952;47.122;-1.638;2023-02-15T05:46:06;3.40;99.90
19610;DHT22;9952;47.122;-1.638;2023-02-15T05:50:57;3.30;99.90
19610;DHT22;9952;47.122;-1.638;2023-02-15T05:55:39;3.30;99.90
19610;DHT22;9952;47.122;-1.638;2023-02-15T06:00:20;3.20;99.90
19610;DHT22;9952;47.122;-1.638;2023-02-15T06:05:02;3.00;99.90
19610;DHT22;9952;47.122;-1.638;2023-02-15T06:09:43;3.10;99.90
19610;DHT22;9952;47.122;-1.638;2023-02-15T06:14:24;3.00;99.90
19610;DHT22;9952;47.122;-1.638;2023-02-15T06:19:05;3.00;99.90
19610;DHT22;9952;47.122;-1.638;2023-02-15T06:23:45;2.90;99.90
19610;DHT22;9952;47.122;-1.638;2023-02-15T06:28:26;2.90;99.90
19610;DHT22;9952;47.122;-1.638;2023-02-15T06:33:07;2.80;99.90
19610;DHT22;9952;47.122;-1.638;2023-02-15T06:37:48;2.80;99.90
19610;DHT22;9952;47.122;-1.638;2023-02-15T06:42:29;2.80;99.90
19610;DHT22;9952;47.122;-1.638;2023-02-15T06:47:10;2.70;99.90
19610;DHT22;9952;47.122;-1.638;2023-02-15T06:51:51;2.70;99.90
19610;DHT22;9952;47.122;-1.638;2023-02-15T06:56:32;2.60;99.90
19610;DHT22;9952;47.122;-1.638;2023-02-15T07:01:12;2.60;99.90
19610;DHT22;9952;47.122;-1.638;2023-02-15T07:05:58;2.50;99.90
19610;DHT22;9952;47.122;-1.638;2023-02-15T07:10:43;2.60;99.90
19610;DHT22;9952;47.122;-1.638;2023-02-15T07:15:24;2.50;99.90
19610;DHT22;9952;47.122;-1.638;2023-02-15T07:20:11;2.60;99.90
19610;DHT22;9952;47.122;-1.638;2023-02-15T07:24:52;2.50;99.90
19610;DHT22;9952;47.122;-1.638;2023-02-15T07:29:35;2.50;99.90
19610;DHT22;9952;47.122;-1.638;2023-02-15T07:34:15;2.50;99.90
19610;DHT22;9952;47.122;-1.638;2023-02-15T07:38:56;2.50;99.90
19610;DHT22;9952;47.122;-1.638;2023-02-15T07:43:40;2.60;99.90
19610;DHT22;9952;47.122;-1.638;2023-02-15T07:48:21;2.60;99.90
19610;DHT22;9952;47.122;-1.638;2023-02-15T07:53:03;2.70;99.90
19610;DHT22;9952;47.122;-1.638;2023-02-15T07:57:44;2.80;99.90
19610;DHT22;9952;47.122;-1.638;2023-02-15T08:02:25;3.10;99.90
19610;DHT22;9952;47.122;-1.638;2023-02-15T08:07:06;3.30;99.90
19610;DHT22;9952;47.122;-1.638;2023-02-15T08:11:47;3.50;99.90
19610;DHT22;9952;47.122;-1.638;2023-02-15T08:16:55;3.80;99.90
19610;DHT22;9952;47.122;-1.638;2023-02-15T08:21:39;4.10;99.90
19610;DHT22;9952;47.122;-1.638;2023-02-15T08:26:21;4.70;99.90
19610;DHT22;9952;47.122;-1.638;2023-02-15T08:31:06;5.20;99.90
19610;DHT22;9952;47.122;-1.638;2023-02-15T08:35:47;5.60;99.90
19610;DHT22;9952;47.122;-1.638;2023-02-15T08:40:28;5.80;99.90
19610;DHT22;9952;47.122;-1.638;2023-02-15T08:45:09;5.80;99.90
19610;DHT22;9952;47.122;-1.638;2023-02-15T08:49:50;6.00;99.90
19610;DHT22;9952;47.122;-1.638;2023-02-15T08:54:31;6.30;99.90
19610;DHT22;9952;47.122;-1.638;2023-02-15T08:59:21;6.70;99.90
19610;DHT22;9952;47.122;-1.638;2023-02-15T09:04:07;7.20;99.90
19610;DHT22;9952;47.122;-1.638;2023-02-15T09:08:51;7.90;99.90
19610;DHT22;9952;47.122;-1.638;2023-02-15T09:13:32;8.50;99.90
19610;DHT22;9952;47.122;-1.638;2023-02-15T09:18:14;9.10;99.90
19610;DHT22;9952;47.122;-1.638;2023-02-15T09:22:57;9.60;99.90
19610;DHT22;9952;47.122;-1.638;2023-02-15T09:27:38;10.10;99.90
19610;DHT22;9952;47.122;-1.638;2023-02-15T09:32:20;10.50;99.90
19610;DHT22;9952;47.122;-1.638;2023-02-15T09:37:00;10.90;99.90
19610;DHT22;9952;47.122;-1.638;2023-02-15T09:57:00;11.80;99.90
19610;DHT22;9952;47.122;-1.638;2023-02-15T10:02:02;12.00;99.90
19610;DHT22;9952;47.122;-1.638;2023-02-15T10:17:10;12.50;99.90
19610;DHT22;9952;47.122;-1.638;2023-02-15T10:22:07;12.60;99.90
19610;DHT22;9952;47.122;-1.638;2023-02-15T10:26:55;13.00;99.90
19610;DHT22;9952;47.122;-1.638;2023-02-15T11:06:43;14.20;99.90
19610;DHT22;9952;47.122;-1.638;2023-02-15T11:11:35;14.30;99.90
19610;DHT22;9952;47.122;-1.638;2023-02-15T11:16:40;14.60;99.90
19610;DHT22;9952;47.122;-1.638;2023-02-15T11:21:31;14.80;99.90
19610;DHT22;9952;47.122;-1.638;2023-02-15T11:26:43;14.90;99.90
19610;DHT22;9952;47.122;-1.638;2023-02-15T11:31:31;15.00;99.90
19610;DHT22;9952;47.122;-1.638;2023-02-15T11:36:22;15.20;99.90
19610;DHT22;9952;47.122;-1.638;2023-02-15T11:41:18;15.30;99.90
19610;DHT22;9952;47.122;-1.638;2023-02-15T11:46:01;15.40;99.90
19610;DHT22;9952;47.122;-1.638;2023-02-15T11:50:43;15.50;99.90
19610;DHT22;9952;47.122;-1.638;2023-02-15T11:55:25;15.60;99.90
19610;DHT22;9952;47.122;-1.638;2023-02-15T12:05:00;15.80;99.90
19610;DHT22;9952;47.122;-1.638;2023-02-15T12:09:49;15.80;99.90
19610;DHT22;9952;47.122;-1.638;2023-02-15T12:14:47;15.90;99.90
19610;DHT22;9952;47.122;-1.638;2023-02-15T12:24:21;16.00;99.90
19610;DHT22;9952;47.122;-1.638;2023-02-15T12:29:16;16.10;99.90
19610;DHT22;9952;47.122;-1.638;2023-02-15T12:34:00;16.10;99.90
19610;DHT22;9952;47.122;-1.638;2023-02-15T12:38:43;16.10;99.90
19610;DHT22;9952;47.122;-1.638;2023-02-15T12:48:17;16.40;99.90
19610;DHT22;9952;47.122;-1.638;2023-02-15T12:53:17;16.40;99.90
19610;DHT22;9952;47.122;-1.638;2023-02-15T12:58:20;16.50;99.90
19610;DHT22;9952;47.122;-1.638;2023-02-15T13:03:03;16.50;99.90
19610;DHT22;9952;47.122;-1.638;2023-02-15T13:07:53;16.60;99.90
19610;DHT22;9952;47.122;-1.638;2023-02-15T13:12:35;16.60;99.90
19610;DHT22;9952;47.122;-1.638;2023-02-15T13:17:16;16.70;99.90
19610;DHT22;9952;47.122;-1.638;2023-02-15T13:21:58;16.80;99.90
19610;DHT22;9952;47.122;-1.638;2023-02-15T13:26:43;16.80;99.90
19610;DHT22;9952;47.122;-1.638;2023-02-15T13:31:28;16.90;99.90
19610;DHT22;9952;47.122;-1.638;2023-02-15T13:41:09;16.80;99.90
19610;DHT22;9952;47.122;-1.638;2023-02-15T13:46:01;16.80;99.90
19610;DHT22;9952;47.122;-1.638;2023-02-15T14:16:05;16.70;99.90
19610;DHT22;9952;47.122;-1.638;2023-02-15T14:25:53;16.70;99.90
19610;DHT22;9952;47.122;-1.638;2023-02-15T14:30:42;16.50;99.90
19610;DHT22;9952;47.122;-1.638;2023-02-15T14:35:27;16.50;99.90
19610;DHT22;9952;47.122;-1.638;2023-02-15T14:40:38;16.40;99.90
19610;DHT22;9952;47.122;-1.638;2023-02-15T14:45:56;16.50;99.90
19610;DHT22;9952;47.122;-1.638;2023-02-15T14:50:46;16.30;99.90
19610;DHT22;9952;47.122;-1.638;2023-02-15T14:55:36;16.30;99.90
19610;DHT22;9952;47.122;-1.638;2023-02-15T15:00:36;16.30;99.90
19610;DHT22;9952;47.122;-1.638;2023-02-15T15:05:46;16.30;99.90
19610;DHT22;9952;47.122;-1.638;2023-02-15T15:15:09;16.30;99.90
19610;DHT22;9952;47.122;-1.638;2023-02-15T15:29:39;16.50;99.90
19610;DHT22;9952;47.122;-1.638;2023-02-15T15:49:58;16.70;99.90
19610;DHT22;9952;47.122;-1.638;2023-02-15T15:54:40;16.70;99.90
19610;DHT22;9952;47.122;-1.638;2023-02-15T15:59:27;16.70;99.90
19610;DHT22;9952;47.122;-1.638;2023-02-15T16:04:14;16.60;99.90
19610;DHT22;9952;47.122;-1.638;2023-02-15T16:13:59;16.40;99.90
19610;DHT22;9952;47.122;-1.638;2023-02-15T16:18:41;16.40;99.90
19610;DHT22;9952;47.122;-1.638;2023-02-15T16:28:27;16.30;99.90
19610;DHT22;9952;47.122;-1.638;2023-02-15T16:33:13;16.10;99.90
19610;DHT22;9952;47.122;-1.638;2023-02-15T16:37:57;16.10;99.90
19610;DHT22;9952;47.122;-1.638;2023-02-15T16:42:38;15.90;99.90
19610;DHT22;9952;47.122;-1.638;2023-02-15T16:47:28;15.70;99.90
19610;DHT22;9952;47.122;-1.638;2023-02-15T16:52:23;15.60;99.90
19610;DHT22;9952;47.122;-1.638;2023-02-15T16:57:05;15.50;99.90
19610;DHT22;9952;47.122;-1.638;2023-02-15T17:01:45;15.50;99.90
19610;DHT22;9952;47.122;-1.638;2023-02-15T17:06:27;15.40;99.90
19610;DHT22;9952;47.122;-1.638;2023-02-15T17:11:18;15.20;99.90
19610;DHT22;9952;47.122;-1.638;2023-02-15T17:20:41;14.70;99.90
19610;DHT22;9952;47.122;-1.638;2023-02-15T17:25:28;14.50;99.90
19610;DHT22;9952;47.122;-1.638;2023-02-15T17:30:17;14.40;99.90
19610;DHT22;9952;47.122;-1.638;2023-02-15T17:35:17;14.30;99.90
19610;DHT22;9952;47.122;-1.638;2023-02-15T17:40:00;14.20;99.90
19610;DHT22;9952;47.122;-1.638;2023-02-15T17:44:43;14.00;99.90
19610;DHT22;9952;47.122;-1.638;2023-02-15T17:49:25;13.90;99.90
19610;DHT22;9952;47.122;-1.638;2023-02-15T17:54:14;13.70;99.90
19610;DHT22;9952;47.122;-1.638;2023-02-15T17:59:13;13.50;99.90
19610;DHT22;9952;47.122;-1.638;2023-02-15T18:03:55;13.30;99.90
19610;DHT22;9952;47.122;-1.638;2023-02-15T18:08:54;13.20;99.90
19610;DHT22;9952;47.122;-1.638;2023-02-15T18:13:54;12.90;99.90
19610;DHT22;9952;47.122;-1.638;2023-02-15T18:18:37;12.80;99.90
19610;DHT22;9952;47.122;-1.638;2023-02-15T18:23:18;12.70;99.90
19610;DHT22;9952;47.122;-1.638;2023-02-15T18:27:58;12.60;99.90
19610;DHT22;9952;47.122;-1.638;2023-02-15T18:32:40;12.60;99.90
19610;DHT22;9952;47.122;-1.638;2023-02-15T18:37:21;12.50;99.90
19610;DHT22;9952;47.122;-1.638;2023-02-15T18:42:05;12.40;99.90
19610;DHT22;9952;47.122;-1.638;2023-02-15T18:46:47;12.20;99.90
19610;DHT22;9952;47.122;-1.638;2023-02-15T18:51:28;12.00;99.90
19610;DHT22;9952;47.122;-1.638;2023-02-15T18:56:16;11.80;99.90
19610;DHT22;9952;47.122;-1.638;2023-02-15T19:00:57;11.80;99.90
19610;DHT22;9952;47.122;-1.638;2023-02-15T19:05:49;11.70;99.90
19610;DHT22;9952;47.122;-1.638;2023-02-15T19:10:31;11.50;99.90
19610;DHT22;9952;47.122;-1.638;2023-02-15T19:15:22;11.30;99.90
19610;DHT22;9952;47.122;-1.638;2023-02-15T19:20:03;11.10;99.90
19610;DHT22;9952;47.122;-1.638;2023-02-15T19:24:45;10.90;99.90
19610;DHT22;9952;47.122;-1.638;2023-02-15T19:29:28;10.80;99.90
19610;DHT22;9952;47.122;-1.638;2023-02-15T19:34:15;10.70;99.90
19610;DHT22;9952;47.122;-1.638;2023-02-15T19:38:56;10.50;99.90
19610;DHT22;9952;47.122;-1.638;2023-02-15T19:43:37;10.40;99.90
19610;DHT22;9952;47.122;-1.638;2023-02-15T19:48:18;10.20;99.90
19610;DHT22;9952;47.122;-1.638;2023-02-15T19:53:00;10.10;99.90
19610;DHT22;9952;47.122;-1.638;2023-02-15T19:57:42;9.80;99.90
19610;DHT22;9952;47.122;-1.638;2023-02-15T20:02:23;9.70;99.90
19610;DHT22;9952;47.122;-1.638;2023-02-15T20:07:09;9.50;99.90
19610;DHT22;9952;47.122;-1.638;2023-02-15T20:11:55;9.40;99.90
19610;DHT22;9952;47.122;-1.638;2023-02-15T20:16:36;9.30;99.90
19610;DHT22;9952;47.122;-1.638;2023-02-15T20:21:17;9.20;99.90
19610;DHT22;9952;47.122;-1.638;2023-02-15T20:26:18;9.10;99.90
19610;DHT22;9952;47.122;-1.638;2023-02-15T20:31:00;9.00;99.90
19610;DHT22;9952;47.122;-1.638;2023-02-15T20:35:42;8.80;99.90
19610;DHT22;9952;47.122;-1.638;2023-02-15T20:40:26;8.60;99.90
19610;DHT22;9952;47.122;-1.638;2023-02-15T20:45:29;8.60;99.90
19610;DHT22;9952;47.122;-1.638;2023-02-15T20:50:11;8.50;99.90
19610;DHT22;9952;47.122;-1.638;2023-02-15T20:54:52;8.40;99.90
19610;DHT22;9952;47.122;-1.638;2023-02-15T20:59:33;8.40;99.90
19610;DHT22;9952;47.122;-1.638;2023-02-15T21:04:32;8.40;99.90
19610;DHT22;9952;47.122;-1.638;2023-02-15T21:09:15;8.40;99.90
19610;DHT22;9952;47.122;-1.638;2023-02-15T21:13:55;8.50;99.90
19610;DHT22;9952;47.122;-1.638;2023-02-15T21:18:36;8.50;99.90
19610;DHT22;9952;47.122;-1.638;2023-02-15T21:23:22;8.50;99.90
19610;DHT22;9952;47.122;-1.638;2023-02-15T21:28:04;8.50;99.90
19610;DHT22;9952;47.122;-1.638;2023-02-15T21:32:48;8.40;99.90
19610;DHT22;9952;47.122;-1.638;2023-02-15T21:37:34;8.20;99.90
19610;DHT22;9952;47.122;-1.638;2023-02-15T21:42:15;8.10;99.90
19610;DHT22;9952;47.122;-1.638;2023-02-15T21:52:22;8.00;99.90
19610;DHT22;9952;47.122;-1.638;2023-02-15T21:57:03;8.00;99.90
19610;DHT22;9952;47.122;-1.638;2023-02-15T22:01:47;7.90;99.90
19610;DHT22;9952;47.122;-1.638;2023-02-15T22:06:28;7.80;99.90
19610;DHT22;9952;47.122;-1.638;2023-02-15T22:11:11;7.80;99.90
19610;DHT22;9952;47.122;-1.638;2023-02-15T22:15:53;7.80;99.90
19610;DHT22;9952;47.122;-1.638;2023-02-15T22:20:34;7.70;99.90
19610;DHT22;9952;47.122;-1.638;2023-02-15T22:25:18;7.80;99.90
19610;DHT22;9952;47.122;-1.638;2023-02-15T22:29:59;7.90;99.90
19610;DHT22;9952;47.122;-1.638;2023-02-15T22:34:40;7.90;99.90
19610;DHT22;9952;47.122;-1.638;2023-02-15T22:39:21;7.90;99.90
19610;DHT22;9952;47.122;-1.638;2023-02-15T22:44:03;7.90;99.90
19610;DHT22;9952;47.122;-1.638;2023-02-15T22:48:45;8.00;99.90
19610;DHT22;9952;47.122;-1.638;2023-02-15T22:53:27;8.00;99.90
19610;DHT22;9952;47.122;-1.638;2023-02-15T22:58:15;8.00;99.90
19610;DHT22;9952;47.122;-1.638;2023-02-15T23:02:57;8.10;99.90
19610;DHT22;9952;47.122;-1.638;2023-02-15T23:07:38;8.00;99.90
19610;DHT22;9952;47.122;-1.638;2023-02-15T23:12:23;8.10;99.90
19610;DHT22;9952;47.122;-1.638;2023-02-15T23:17:04;8.10;99.90
19610;DHT22;9952;47.122;-1.638;2023-02-15T23:21:45;8.30;99.90
19610;DHT22;9952;47.122;-1.638;2023-02-15T23:26:28;8.40;99.90
19610;DHT22;9952;47.122;-1.638;2023-02-15T23:31:22;8.60;99.90
19610;DHT22;9952;47.122;-1.638;2023-02-15T23:36:03;8.70;99.90
19610;DHT22;9952;47.122;-1.638;2023-02-15T23:40:49;8.70;99.90
19610;DHT22;9952;47.122;-1.638;2023-02-15T23:45:49;8.70;99.90
19610;DHT22;9952;47.122;-1.638;2023-02-15T23:50:29;8.70;99.90
19610;DHT22;9952;47.122;-1.638;2023-02-15T23:55:14;8.70;99.90
19610;DHT22;9952;47.122;-1.638;2023-02-15T23:59:55;8.70;99.90
